Knoxville, Georgia
Current Conditions -  °F | °C
As of 3:35 PM on Sunday 21 Dec 2014 (Local Time) from KPXE Reporting Station
Overcast Overcast  
Wind Chill: 55°   Ceiling: 1700
Heat Index: 55°   Visibility: 7mi
Dew Point: 49°   Wind: 7mph
Humidity: 82%   Direction: 80°E
Pressure: 30.1"   Gusts: NA
Location:  32.72°N, 84°W
Report Text: KPXE 212035Z AUTO 08006KT 7SM BKN017 OVC024 13/10 A3010 RMK AO2 T01250095
Loading
Personal Weather Stations






























Interactive Weather Map New forecast layout! Learn more

10-Day Weather Forecast

Advertisements
Track Severe Weather on mobile